createdAt,value
2017-08-13T00:00:55.376Z,65.60
2017-08-13T00:03:23.194Z,65.70
2017-08-13T00:05:50.714Z,65.90
2017-08-13T00:08:18.221Z,66.10
2017-08-13T00:10:50.295Z,66.20
2017-08-13T00:13:18.798Z,66.30
2017-08-13T00:15:46.319Z,66.40
2017-08-13T00:18:14.118Z,66.50
2017-08-13T00:20:41.631Z,66.70
2017-08-13T00:23:09.904Z,66.90
2017-08-13T00:25:38.527Z,67.10
2017-08-13T00:28:06.045Z,67.10
2017-08-13T00:30:34.436Z,67.40
2017-08-13T00:33:02.249Z,67.40
2017-08-13T00:35:29.756Z,67.40
2017-08-13T00:37:57.272Z,67.50
2017-08-13T00:40:25.096Z,67.40
2017-08-13T00:42:52.585Z,67.30
2017-08-13T00:45:20.118Z,67.30
2017-08-13T00:47:47.996Z,67.40
2017-08-13T00:50:15.528Z,67.30
2017-08-13T00:52:43.058Z,67.30
2017-08-13T00:55:11.007Z,67.50
2017-08-13T00:57:38.524Z,67.70
2017-08-13T01:00:06.811Z,67.80
2017-08-13T01:02:34.713Z,67.80
2017-08-13T01:05:02.255Z,67.80
2017-08-13T01:07:29.758Z,67.90
2017-08-13T01:09:57.603Z,68.00
2017-08-13T01:12:25.106Z,68.00
2017-08-13T01:14:52.639Z,68.10
2017-08-13T01:17:20.458Z,68.20
2017-08-13T01:19:47.972Z,68.30
2017-08-13T01:22:15.472Z,68.30
2017-08-13T01:24:43.365Z,68.40
2017-08-13T01:27:10.888Z,68.40
2017-08-13T01:29:39.154Z,68.40
2017-08-13T01:32:07.787Z,68.40
2017-08-13T01:34:35.353Z,68.40
2017-08-13T01:37:02.883Z,68.50
2017-08-13T01:39:30.674Z,68.60
2017-08-13T01:41:58.200Z,68.60
2017-08-13T01:44:25.719Z,68.60
2017-08-13T01:46:53.555Z,68.70
2017-08-13T01:49:21.077Z,68.60
2017-08-13T01:51:49.356Z,68.40
2017-08-13T01:54:17.932Z,68.40
2017-08-13T01:56:45.470Z,68.40
2017-08-13T01:59:12.986Z,68.50
2017-08-13T02:01:40.883Z,68.30
2017-08-13T02:04:08.425Z,68.30
2017-08-13T02:06:35.972Z,68.20
2017-08-13T02:09:03.781Z,68.20
2017-08-13T02:11:31.298Z,68.10
2017-08-13T02:13:58.820Z,68.00
2017-08-13T02:16:26.642Z,67.80
2017-08-13T02:18:54.177Z,67.80
2017-08-13T02:21:21.693Z,67.80
2017-08-13T02:23:49.524Z,67.60
2017-08-13T02:26:17.069Z,67.70
2017-08-13T02:28:44.602Z,67.60
2017-08-13T02:31:12.428Z,67.60
2017-08-13T02:33:39.940Z,67.70
2017-08-13T02:36:07.489Z,67.60
2017-08-13T02:38:36.116Z,67.60
2017-08-13T02:41:03.640Z,67.50
2017-08-13T02:43:31.149Z,67.50
2017-08-13T02:45:58.987Z,67.40
2017-08-13T02:48:26.527Z,67.50
2017-08-13T02:50:54.816Z,67.40
2017-08-13T02:53:22.740Z,67.30
2017-08-13T02:55:50.242Z,67.30
2017-08-13T02:58:18.531Z,67.20
2017-08-13T03:00:46.449Z,67.20
2017-08-13T03:03:13.961Z,67.20
2017-08-13T03:05:41.479Z,67.00
2017-08-13T03:08:09.390Z,67.00
2017-08-13T03:10:36.908Z,67.00
2017-08-13T03:13:04.413Z,67.10
2017-08-13T03:15:32.295Z,67.10
2017-08-13T03:17:59.825Z,67.10
2017-08-13T03:20:27.363Z,67.10
2017-08-13T03:22:55.982Z,67.10
2017-08-13T03:25:23.498Z,67.10
2017-08-13T03:27:50.999Z,67.10
2017-08-13T03:30:18.887Z,67.10
2017-08-13T03:32:46.395Z,67.10
2017-08-13T03:35:15.383Z,67.00
2017-08-13T03:37:43.304Z,67.00
2017-08-13T03:40:10.806Z,67.00
2017-08-13T03:42:38.342Z,67.00
2017-08-13T03:45:06.218Z,66.90
2017-08-13T03:47:33.716Z,66.90
2017-08-13T03:50:01.993Z,66.90
2017-08-13T03:52:30.609Z,66.80
2017-08-13T03:54:58.119Z,66.80
2017-08-13T03:57:25.631Z,66.70
2017-08-13T03:59:53.483Z,66.50
2017-08-13T04:02:21.170Z,66.40
2017-08-13T04:04:48.671Z,66.40
2017-08-13T04:07:16.497Z,66.40
2017-08-13T04:09:43.998Z,66.40
2017-08-13T04:12:11.505Z,66.40
2017-08-13T04:14:39.340Z,66.40
2017-08-13T04:17:08.198Z,66.30
2017-08-13T04:19:35.724Z,66.20
2017-08-13T04:22:03.556Z,66.20
2017-08-13T04:24:31.851Z,66.20
2017-08-13T04:26:59.365Z,66.20
2017-08-13T04:29:27.199Z,67.00
2017-08-13T04:31:54.751Z,66.20
2017-08-13T04:34:22.267Z,66.20
2017-08-13T04:36:50.201Z,66.20
2017-08-13T04:39:17.702Z,66.10
2017-08-13T04:41:45.207Z,66.10
2017-08-13T04:44:13.035Z,66.10
2017-08-13T04:46:41.328Z,65.80
2017-08-13T04:49:08.850Z,65.90
2017-08-13T04:51:36.688Z,65.70
2017-08-13T04:54:04.254Z,65.70
2017-08-13T04:56:31.770Z,65.60
2017-08-13T04:59:00.340Z,65.60
2017-08-13T05:01:28.632Z,65.60
2017-08-13T05:03:56.158Z,65.60
2017-08-13T05:06:23.991Z,65.60
2017-08-13T05:08:51.516Z,65.50
2017-08-13T05:11:19.039Z,65.50
2017-08-13T05:13:46.876Z,65.30
2017-08-13T05:16:15.160Z,65.40
2017-08-13T05:18:42.683Z,65.40
2017-08-13T05:21:10.583Z,65.50
2017-08-13T05:23:38.096Z,65.40
2017-08-13T05:26:05.593Z,65.40
2017-08-13T05:28:33.554Z,65.50
2017-08-13T05:31:01.089Z,65.50
2017-08-13T05:33:29.362Z,65.40
2017-08-13T05:35:58.073Z,65.30
2017-08-13T05:38:25.604Z,65.30
2017-08-13T05:40:53.132Z,65.20
2017-08-13T05:43:20.929Z,65.20
2017-08-13T05:45:49.221Z,65.80
2017-08-13T05:48:16.739Z,65.10
2017-08-13T05:50:44.587Z,64.90
2017-08-13T05:53:12.108Z,64.80
2017-08-13T05:55:39.632Z,64.80
2017-08-13T05:58:07.464Z,64.70
2017-08-13T06:00:35.751Z,64.50
2017-08-13T06:03:03.697Z,64.50
2017-08-13T06:05:31.530Z,64.60
2017-08-13T06:07:59.044Z,64.40
2017-08-13T06:10:26.563Z,64.30
2017-08-13T06:12:55.182Z,64.00
2017-08-13T06:15:22.728Z,64.00
2017-08-13T06:17:50.282Z,64.10
2017-08-13T06:20:18.187Z,64.00
2017-08-13T06:22:45.722Z,63.90
2017-08-13T06:25:13.243Z,63.70
2017-08-13T06:27:41.063Z,63.70
2017-08-13T06:30:08.594Z,63.50
2017-08-13T06:32:36.108Z,63.40
2017-08-13T06:35:03.965Z,63.40
2017-08-13T06:37:31.489Z,63.40
2017-08-13T06:40:02.429Z,63.20
2017-08-13T06:42:30.233Z,62.80
2017-08-13T06:44:57.735Z,62.50
2017-08-13T06:47:26.028Z,62.10
2017-08-13T06:49:53.937Z,62.10
2017-08-13T06:52:21.462Z,61.70
2017-08-13T06:54:49.011Z,61.50
2017-08-13T06:57:16.883Z,61.40
2017-08-13T06:59:44.385Z,61.30
2017-08-13T07:02:11.917Z,61.10
2017-08-13T07:04:39.814Z,61.30
2017-08-13T07:07:10.852Z,62.20
2017-08-13T07:09:38.373Z,60.90
2017-08-13T07:12:06.191Z,60.80
2017-08-13T07:14:33.735Z,60.90
2017-08-13T07:17:01.828Z,60.90
2017-08-13T07:19:29.661Z,60.80
2017-08-13T07:21:57.206Z,60.50
2017-08-13T07:24:24.740Z,60.30
2017-08-13T07:26:53.303Z,60.30
2017-08-13T07:29:20.863Z,60.30
2017-08-13T07:31:48.376Z,60.50
2017-08-13T07:34:16.192Z,60.10
2017-08-13T07:36:43.700Z,60.30
2017-08-13T07:39:11.222Z,60.70
2017-08-13T07:41:39.028Z,60.60
2017-08-13T07:44:06.560Z,60.70
2017-08-13T07:46:34.064Z,60.90
2017-08-13T07:49:01.997Z,60.70
2017-08-13T07:51:29.541Z,60.40
2017-08-13T07:53:57.066Z,60.00
2017-08-13T07:56:24.925Z,60.00
2017-08-13T07:58:52.448Z,60.00
2017-08-13T08:01:19.974Z,59.80
2017-08-13T08:03:47.791Z,59.70
2017-08-13T08:06:15.323Z,59.50
2017-08-13T08:08:42.844Z,59.20
2017-08-13T08:11:10.644Z,59.50
2017-08-13T08:13:38.177Z,59.50
2017-08-13T08:16:05.702Z,59.40
2017-08-13T08:18:33.512Z,59.20
2017-08-13T08:21:01.050Z,59.00
2017-08-13T08:23:28.557Z,58.90
2017-08-13T08:25:56.466Z,58.50
2017-08-13T08:28:23.990Z,58.10
2017-08-13T08:30:52.294Z,57.60
2017-08-13T08:33:20.100Z,57.50
2017-08-13T08:35:47.616Z,57.40
2017-08-13T08:38:15.124Z,57.30
2017-08-13T08:40:42.968Z,57.30
2017-08-13T08:43:10.511Z,57.30
2017-08-13T08:45:38.037Z,57.40
2017-08-13T08:48:06.665Z,57.50
2017-08-13T08:50:35.022Z,57.50
2017-08-13T08:53:02.536Z,57.50
2017-08-13T08:55:30.343Z,57.80
2017-08-13T08:57:57.921Z,58.00
2017-08-13T09:00:25.456Z,57.90
2017-08-13T09:02:53.371Z,58.10
2017-08-13T09:05:20.907Z,58.20
2017-08-13T09:07:48.440Z,58.10
2017-08-13T09:10:17.064Z,57.90
2017-08-13T09:12:44.602Z,57.90
2017-08-13T09:15:13.029Z,58.00
2017-08-13T09:17:40.847Z,58.10
2017-08-13T09:20:08.378Z,58.00
2017-08-13T09:22:36.684Z,58.70
2017-08-13T09:25:04.592Z,58.70
2017-08-13T09:27:32.166Z,59.00
2017-08-13T09:29:59.707Z,59.10
2017-08-13T09:32:29.014Z,59.10
2017-08-13T09:34:56.565Z,59.20
2017-08-13T09:37:24.114Z,59.40
2017-08-13T09:39:52.008Z,59.60
2017-08-13T09:42:19.555Z,59.60
2017-08-13T09:44:47.102Z,59.70
2017-08-13T09:47:14.995Z,59.80
2017-08-13T09:49:42.539Z,60.00
2017-08-13T09:52:10.091Z,59.80
2017-08-13T09:54:37.920Z,59.80
2017-08-13T09:57:06.230Z,60.00
2017-08-13T09:59:33.775Z,60.10
2017-08-13T10:02:01.800Z,60.20
2017-08-13T10:04:29.334Z,60.00
2017-08-13T10:06:56.892Z,59.90
2017-08-13T10:09:24.726Z,59.70
2017-08-13T10:11:52.263Z,59.80
2017-08-13T10:14:19.807Z,59.60
2017-08-13T10:16:47.658Z,59.20
2017-08-13T10:19:15.191Z,59.00
2017-08-13T10:21:42.738Z,59.00
2017-08-13T10:24:10.668Z,58.90
2017-08-13T10:26:38.206Z,58.80
2017-08-13T10:29:05.752Z,58.70
2017-08-13T10:31:33.580Z,58.30
2017-08-13T10:34:01.124Z,57.70
2017-08-13T10:36:28.634Z,57.60
2017-08-13T10:38:56.531Z,57.40
2017-08-13T10:41:24.182Z,57.40
2017-08-13T10:43:51.704Z,57.30
2017-08-13T10:46:19.628Z,57.10
2017-08-13T10:48:47.151Z,56.60
2017-08-13T10:51:14.695Z,56.30
2017-08-13T10:53:42.626Z,56.30
2017-08-13T10:56:10.135Z,56.40
2017-08-13T10:58:37.660Z,56.50
2017-08-13T11:01:05.509Z,56.70
2017-08-13T11:03:33.046Z,56.90
2017-08-13T11:06:00.571Z,57.10
2017-08-13T11:08:28.503Z,57.10
2017-08-13T11:10:56.070Z,57.20
2017-08-13T11:13:23.571Z,57.00
2017-08-13T11:15:51.579Z,57.20
2017-08-13T11:18:19.137Z,57.20
2017-08-13T11:20:46.654Z,57.10
2017-08-13T11:23:14.571Z,57.00
2017-08-13T11:25:42.143Z,57.10
2017-08-13T11:28:09.684Z,57.40
2017-08-13T11:30:37.549Z,57.30
2017-08-13T11:33:05.082Z,57.30
2017-08-13T11:35:32.608Z,57.30
2017-08-13T11:38:00.413Z,57.40
2017-08-13T11:40:28.032Z,57.10
2017-08-13T11:42:55.565Z,57.10
2017-08-13T11:45:23.394Z,56.90
2017-08-13T11:47:50.941Z,56.70
2017-08-13T11:50:18.493Z,56.60
2017-08-13T11:52:47.222Z,56.20
2017-08-13T11:55:14.774Z,56.20
2017-08-13T11:57:42.300Z,55.10
2017-08-13T12:00:10.962Z,53.30
2017-08-13T12:02:38.514Z,53.20
2017-08-13T12:05:06.054Z,53.40
2017-08-13T12:07:33.956Z,52.80
2017-08-13T12:10:01.464Z,51.40
2017-08-13T12:12:28.986Z,51.00
2017-08-13T12:14:56.825Z,50.00
2017-08-13T12:17:24.372Z,49.30
2017-08-13T12:19:51.885Z,49.00
2017-08-13T12:22:20.518Z,47.00
2017-08-13T12:24:48.021Z,46.80
2017-08-13T12:27:16.343Z,45.30
2017-08-13T12:29:44.240Z,45.20
2017-08-13T12:32:11.781Z,45.60
2017-08-13T12:34:39.324Z,46.00
2017-08-13T12:37:07.244Z,46.30
2017-08-13T12:39:34.763Z,46.60
2017-08-13T12:42:02.281Z,47.00
2017-08-13T12:44:30.113Z,47.00
2017-08-13T12:46:57.639Z,47.10
2017-08-13T12:49:25.152Z,47.60
2017-08-13T12:51:52.994Z,48.00
2017-08-13T12:54:20.515Z,48.20
2017-08-13T12:56:48.049Z,48.90
2017-08-13T12:59:15.856Z,49.50
2017-08-13T13:01:43.388Z,50.10
2017-08-13T13:04:11.666Z,50.90
2017-08-13T13:06:40.301Z,51.60
2017-08-13T13:09:07.820Z,51.50
2017-08-13T13:11:36.117Z,53.30
2017-08-13T13:14:04.027Z,53.30
2017-08-13T13:16:31.567Z,54.10
2017-08-13T13:18:59.094Z,54.90
2017-08-13T13:21:26.883Z,55.80
2017-08-13T13:23:54.398Z,57.20
2017-08-13T13:26:22.700Z,60.80
2017-08-13T13:28:50.514Z,60.80
2017-08-13T13:31:18.044Z,62.00
2017-08-13T13:33:45.579Z,62.60
2017-08-13T13:36:13.363Z,63.40
2017-08-13T13:38:40.897Z,64.10
2017-08-13T13:41:09.214Z,64.70
2017-08-13T13:43:37.043Z,64.70
2017-08-13T13:46:04.574Z,64.20
2017-08-13T13:48:32.109Z,63.80
2017-08-13T13:50:59.924Z,64.00
2017-08-13T13:53:28.213Z,64.20
2017-08-13T13:55:55.784Z,64.30
2017-08-13T13:58:23.702Z,65.10
2017-08-13T14:00:51.249Z,64.60
2017-08-13T14:03:18.767Z,64.20
2017-08-13T14:05:46.716Z,64.40
2017-08-13T14:08:15.049Z,62.90
2017-08-13T14:10:42.625Z,62.90
2017-08-13T14:13:10.571Z,63.00
2017-08-13T14:15:38.123Z,62.70
2017-08-13T14:18:05.662Z,62.30
2017-08-13T14:20:33.760Z,61.70
2017-08-13T14:23:01.275Z,60.80
2017-08-13T14:25:29.582Z,59.80
2017-08-13T14:27:58.406Z,59.80
2017-08-13T14:30:25.962Z,60.10
2017-08-13T14:32:53.501Z,60.50
2017-08-13T14:35:21.407Z,59.80
2017-08-13T14:37:48.947Z,59.30
2017-08-13T14:40:16.494Z,57.80
2017-08-13T14:42:44.414Z,56.10
2017-08-13T14:45:11.980Z,54.60
2017-08-13T14:47:39.512Z,53.80
2017-08-13T14:50:07.380Z,53.40
2017-08-13T14:52:34.892Z,53.60
2017-08-13T14:55:02.451Z,53.80
2017-08-13T14:57:30.380Z,53.90
2017-08-13T14:59:57.958Z,54.30
2017-08-13T15:02:25.504Z,54.70
2017-08-13T15:04:53.309Z,54.90
2017-08-13T15:07:20.843Z,54.50
2017-08-13T15:09:48.380Z,54.70
2017-08-13T15:12:16.326Z,54.70
2017-08-13T15:14:43.875Z,54.40
2017-08-13T15:17:11.421Z,54.60
2017-08-13T15:19:39.322Z,54.40
2017-08-13T15:22:06.856Z,54.40
2017-08-13T15:24:34.394Z,54.20
2017-08-13T15:27:02.313Z,53.90
2017-08-13T15:29:29.825Z,53.50
2017-08-13T15:31:58.131Z,53.10
2017-08-13T15:34:26.048Z,53.10
2017-08-13T15:36:53.600Z,52.80
2017-08-13T15:39:21.158Z,52.90
2017-08-13T15:41:49.128Z,53.20
2017-08-13T15:44:16.652Z,53.20
2017-08-13T15:46:46.145Z,53.10
2017-08-13T15:49:14.032Z,53.20
2017-08-13T15:51:41.716Z,53.20
2017-08-13T15:54:09.307Z,53.20
2017-08-13T15:56:37.148Z,53.40
2017-08-13T15:59:04.674Z,53.50
2017-08-13T16:01:32.196Z,53.60
2017-08-13T16:04:00.834Z,53.70
2017-08-13T16:06:34.387Z,53.60
2017-08-13T16:09:02.236Z,53.10
2017-08-13T16:11:29.783Z,52.50
2017-08-13T16:13:57.307Z,52.40
2017-08-13T16:16:25.226Z,52.00
2017-08-13T16:18:52.791Z,50.90
2017-08-13T16:21:20.327Z,50.00
2017-08-13T16:23:48.182Z,48.80
2017-08-13T16:26:15.839Z,47.50
2017-08-13T16:28:43.411Z,46.30
2017-08-13T16:31:11.285Z,45.20
2017-08-13T16:33:38.795Z,44.30
2017-08-13T16:36:07.119Z,43.60
2017-08-13T16:38:34.944Z,43.40
2017-08-13T16:41:02.712Z,43.40
2017-08-13T16:43:30.288Z,42.60
2017-08-13T16:45:58.209Z,41.50
2017-08-13T16:48:25.826Z,41.40
2017-08-13T16:50:53.361Z,41.20
2017-08-13T16:53:22.088Z,42.90
2017-08-13T16:55:49.719Z,42.80
2017-08-13T16:58:17.270Z,43.50
2017-08-13T17:00:45.542Z,43.80
2017-08-13T17:03:13.066Z,43.60
2017-08-13T17:05:40.618Z,43.70
2017-08-13T17:08:08.585Z,42.50
2017-08-13T17:10:36.668Z,42.00
2017-08-13T17:13:04.204Z,41.70
2017-08-13T17:15:32.041Z,41.50
2017-08-13T17:17:59.579Z,41.40
2017-08-13T17:20:27.079Z,41.20
2017-08-13T17:22:54.908Z,40.80
2017-08-13T17:25:22.451Z,40.80
2017-08-13T17:27:49.987Z,40.80
2017-08-13T17:30:17.838Z,41.00
2017-08-13T17:32:45.360Z,41.20
2017-08-13T17:35:12.958Z,41.40
2017-08-13T17:37:40.769Z,41.50
2017-08-13T17:40:08.288Z,41.60
2017-08-13T17:42:35.871Z,41.50
2017-08-13T17:45:03.732Z,41.40
2017-08-13T17:47:31.263Z,41.80
2017-08-13T17:49:58.814Z,42.20
2017-08-13T17:52:27.489Z,42.40
2017-08-13T17:54:55.766Z,42.80
2017-08-13T17:57:24.069Z,43.10
2017-08-13T17:59:51.963Z,43.20
2017-08-13T18:02:19.521Z,43.70
2017-08-13T18:04:47.044Z,44.30
2017-08-13T18:07:14.925Z,45.00
2017-08-13T18:09:42.449Z,45.80
2017-08-13T18:12:17.670Z,46.40
2017-08-13T18:14:45.206Z,46.80
2017-08-13T18:17:12.736Z,47.40
2017-08-13T18:19:40.760Z,47.80
2017-08-13T18:22:08.285Z,48.40
2017-08-13T18:24:35.816Z,48.60
2017-08-13T18:27:04.457Z,49.40
2017-08-13T18:29:31.981Z,49.50
2017-08-13T18:31:59.514Z,50.30
2017-08-13T18:34:28.348Z,50.70
2017-08-13T18:36:55.900Z,51.30
2017-08-13T18:39:23.460Z,51.80
2017-08-13T18:41:51.341Z,52.30
2017-08-13T18:44:19.824Z,52.80
2017-08-13T18:46:47.383Z,53.30
2017-08-13T18:49:15.247Z,53.70
2017-08-13T18:51:42.819Z,54.10
2017-08-13T18:54:10.359Z,54.40
2017-08-13T18:56:39.376Z,54.90
2017-08-13T18:59:06.914Z,55.20
2017-08-13T19:01:34.488Z,55.50
2017-08-13T19:04:02.488Z,55.80
2017-08-13T19:06:30.028Z,56.10
2017-08-13T19:08:57.616Z,56.40
2017-08-13T19:11:25.469Z,56.80
2017-08-13T19:13:53.053Z,57.10
2017-08-13T19:16:21.514Z,57.50
2017-08-13T19:18:49.361Z,57.90
2017-08-13T19:21:16.901Z,58.50
2017-08-13T19:23:44.481Z,58.90
2017-08-13T19:26:12.387Z,59.30
2017-08-13T19:28:39.965Z,59.70
2017-08-13T19:31:08.261Z,60.60
2017-08-13T19:33:36.185Z,60.70
2017-08-13T19:36:03.741Z,60.90
2017-08-13T19:38:31.293Z,61.40
2017-08-13T19:40:59.826Z,61.90
2017-08-13T19:43:27.392Z,62.20
2017-08-13T19:45:54.930Z,62.50
2017-08-13T19:48:22.814Z,62.80
2017-08-13T19:50:50.371Z,63.00
2017-08-13T19:53:18.097Z,63.40
2017-08-13T19:55:45.969Z,64.40
2017-08-13T19:58:13.507Z,64.10
2017-08-13T20:00:41.065Z,64.50
2017-08-13T20:03:08.939Z,64.70
2017-08-13T20:05:36.623Z,65.10
2017-08-13T20:08:04.257Z,65.30
2017-08-13T20:10:32.204Z,65.50
2017-08-13T20:12:59.797Z,65.70
2017-08-13T20:15:27.367Z,65.70
2017-08-13T20:17:55.392Z,66.00
2017-08-13T20:20:22.997Z,66.20
2017-08-13T20:22:50.523Z,66.30
2017-08-13T20:25:18.524Z,66.40
2017-08-13T20:27:46.128Z,67.40
2017-08-13T20:30:14.575Z,66.80
2017-08-13T20:32:42.465Z,66.90
2017-08-13T20:35:09.981Z,67.10
2017-08-13T20:37:37.590Z,67.20
2017-08-13T20:40:05.643Z,67.30
2017-08-13T20:42:33.180Z,67.60
2017-08-13T20:45:00.685Z,67.70
2017-08-13T20:47:29.344Z,68.70
2017-08-13T20:49:58.799Z,68.10
2017-08-13T20:52:26.358Z,68.20
2017-08-13T20:54:54.290Z,68.30
2017-08-13T20:57:21.831Z,68.60
2017-08-13T20:59:49.350Z,68.60
2017-08-13T21:02:17.194Z,68.70
2017-08-13T21:04:45.517Z,68.80
2017-08-13T21:07:13.047Z,68.80
2017-08-13T21:09:40.963Z,69.00
2017-08-13T21:12:08.487Z,69.10
2017-08-13T21:14:37.185Z,69.10
2017-08-13T21:17:04.998Z,69.30
2017-08-13T21:19:32.552Z,69.20
2017-08-13T21:22:00.100Z,69.50
2017-08-13T21:24:28.894Z,69.70
2017-08-13T21:26:56.444Z,69.80
2017-08-13T21:29:24.111Z,70.00
2017-08-13T21:31:51.975Z,70.00
2017-08-13T21:34:19.534Z,70.10
2017-08-13T21:36:47.055Z,70.10
2017-08-13T21:39:14.880Z,70.30
2017-08-13T21:41:42.395Z,70.40
2017-08-13T21:44:09.921Z,70.50
2017-08-13T21:46:37.808Z,70.50
2017-08-13T21:49:05.323Z,70.60
2017-08-13T21:51:32.841Z,70.80
2017-08-13T21:54:00.400Z,70.70
2017-08-13T21:56:27.943Z,70.80
2017-08-13T21:58:55.985Z,70.80
2017-08-13T22:01:23.528Z,70.90
2017-08-13T22:03:51.073Z,70.90
2017-08-13T22:06:18.732Z,71.00
2017-08-13T22:08:46.321Z,71.20
2017-08-13T22:11:14.170Z,71.30
2017-08-13T22:13:41.722Z,71.30
2017-08-13T22:16:09.285Z,71.40
2017-08-13T22:18:36.868Z,71.50
2017-08-13T22:21:04.437Z,71.60
2017-08-13T22:23:32.285Z,71.90
2017-08-13T22:25:59.825Z,71.90
2017-08-13T22:28:27.354Z,72.10
2017-08-13T22:30:54.945Z,72.20
2017-08-13T22:33:22.460Z,72.30
2017-08-13T22:35:50.298Z,72.40
2017-08-13T22:38:17.836Z,72.50
2017-08-13T22:40:45.362Z,72.70
2017-08-13T22:43:12.926Z,72.80
2017-08-13T22:45:40.472Z,72.80
2017-08-13T22:48:09.126Z,73.10
2017-08-13T22:50:36.819Z,73.20
2017-08-13T22:53:04.363Z,73.30
2017-08-13T22:55:31.912Z,74.20
2017-08-13T22:57:59.435Z,73.50
2017-08-13T23:00:27.321Z,74.40
2017-08-13T23:02:54.846Z,73.90
2017-08-13T23:05:22.353Z,74.00
2017-08-13T23:07:49.899Z,74.00
2017-08-13T23:10:17.414Z,74.20
2017-08-13T23:12:46.060Z,74.60
2017-08-13T23:15:13.588Z,74.50
2017-08-13T23:17:41.113Z,74.60
2017-08-13T23:20:09.442Z,75.00
2017-08-13T23:22:36.957Z,75.00
2017-08-13T23:25:04.881Z,75.20
2017-08-13T23:27:32.417Z,75.30
2017-08-13T23:29:59.972Z,75.30
2017-08-13T23:32:27.591Z,75.40
2017-08-13T23:34:55.117Z,75.50
2017-08-13T23:37:23.007Z,75.70
2017-08-13T23:39:50.531Z,75.80
2017-08-13T23:42:18.053Z,75.90
2017-08-13T23:44:46.371Z,76.10
2017-08-13T23:47:13.951Z,76.10
2017-08-13T23:49:41.777Z,76.40
2017-08-13T23:52:09.298Z,76.50
2017-08-13T23:54:36.838Z,76.50
2017-08-13T23:57:04.417Z,76.70
2017-08-13T23:59:31.914Z,76.70
